BISF weather

Selfoss Airport
Selfoss, Southern Region, Iceland

Public forecast

Using degrees Celsius for public forecast. Weather courtesy of forecast.io.

Closest aviation weather report (METAR) to Selfoss Airport

Closest report is Reykjavik Airport, 26.6 nm (49.3 km) WNW. Retrieved 2019/10/16 11:00 UTC (37 minutes ago):

BIRK 161100Z 09018KT 9999 FEW035 SCT065 BKN100 12/02 Q0997

Closest aviation forecast (TAF) to Selfoss Airport

Closest forecast is Reykjavik Airport, 26.6 nm (49.3 km) WNW. Retrieved 2019/10/16 09:03 UTC (3 hours ago):

TAF BIRK 160759Z 1609/1709 07020G30KT 9999 BKN050 TX12/1612Z TN03/1707Z BECMG 1610/1612 07015KT BECMG 1618/1620 03005KT